createdAt,value
2022-08-16T00:02:03.180Z,24.50
2022-08-16T00:05:15.766Z,24.50
2022-08-16T00:08:36.157Z,24.90
2022-08-16T00:11:39.370Z,24.60
2022-08-16T00:14:40.686Z,24.90
2022-08-16T00:17:56.080Z,24.50
2022-08-16T00:20:59.075Z,24.60
2022-08-16T00:24:00.758Z,24.70
2022-08-16T00:27:06.498Z,24.70
2022-08-16T00:30:28.550Z,24.50
2022-08-16T00:33:30.819Z,24.50
2022-08-16T00:36:33.177Z,24.50
2022-08-16T00:39:34.557Z,24.60
2022-08-16T00:42:35.959Z,24.60
2022-08-16T00:45:39.336Z,24.50
2022-08-16T00:49:00.348Z,24.50
2022-08-16T00:52:04.706Z,24.40
2022-08-16T00:55:26.349Z,24.60
2022-08-16T00:58:40.565Z,24.40
2022-08-16T01:01:45.226Z,24.50
2022-08-16T01:05:09.122Z,24.40
2022-08-16T01:08:35.055Z,24.70
2022-08-16T01:11:31.250Z,24.60
2022-08-16T01:14:34.944Z,24.70
2022-08-16T01:17:37.464Z,24.50
2022-08-16T01:20:42.344Z,24.50
2022-08-16T01:24:01.239Z,24.50
2022-08-16T01:27:07.577Z,24.60
2022-08-16T01:30:20.275Z,24.40
2022-08-16T01:33:33.470Z,24.60
2022-08-16T01:36:37.933Z,24.70
2022-08-16T01:39:40.705Z,24.40
2022-08-16T01:42:48.227Z,24.40
2022-08-16T01:45:54.072Z,24.70
2022-08-16T01:49:01.260Z,24.50
2022-08-16T01:52:05.129Z,24.50
2022-08-16T01:55:35.853Z,24.50
2022-08-16T01:58:41.939Z,24.60
2022-08-16T02:01:52.741Z,24.40
2022-08-16T02:05:02.137Z,24.50
2022-08-16T02:08:04.049Z,24.30
2022-08-16T02:11:08.811Z,24.40
2022-08-16T02:14:18.461Z,24.60
2022-08-16T02:17:24.073Z,24.60
2022-08-16T02:20:27.841Z,24.60
2022-08-16T02:23:29.558Z,24.40
2022-08-16T02:26:34.205Z,24.30
2022-08-16T02:29:36.178Z,24.50
2022-08-16T02:32:50.997Z,24.30
2022-08-16T02:35:59.917Z,24.40
2022-08-16T02:39:04.534Z,24.30
2022-08-16T02:42:06.845Z,24.40
2022-08-16T02:45:09.415Z,24.50
2022-08-16T02:48:29.178Z,24.40
2022-08-16T02:51:32.387Z,24.80
2022-08-16T02:54:37.753Z,24.30
2022-08-16T02:57:42.560Z,24.40
2022-08-16T03:00:57.250Z,24.40
2022-08-16T03:04:41.500Z,24.20
2022-08-16T03:07:27.694Z,24.40
2022-08-16T03:10:33.360Z,24.30
2022-08-16T03:13:40.136Z,24.50
2022-08-16T03:17:00.390Z,24.50
2022-08-16T03:20:08.681Z,24.30
2022-08-16T03:23:14.770Z,24.50
2022-08-16T03:26:20.144Z,24.50
2022-08-16T03:29:23.922Z,24.40
2022-08-16T03:32:26.196Z,24.50
2022-08-16T03:35:32.695Z,24.30
2022-08-16T03:38:41.949Z,24.60
2022-08-16T03:41:50.210Z,24.40
2022-08-16T03:45:03.511Z,24.60
2022-08-16T03:48:09.519Z,24.50
2022-08-16T03:51:17.958Z,24.50
2022-08-16T03:54:30.871Z,24.30
2022-08-16T03:57:35.677Z,24.40
2022-08-16T04:00:41.695Z,24.30
2022-08-16T04:03:49.892Z,24.40
2022-08-16T04:06:51.530Z,24.30
2022-08-16T04:09:54.347Z,24.60
2022-08-16T04:13:04.077Z,24.40
2022-08-16T04:16:08.835Z,24.40
2022-08-16T04:19:11.206Z,24.50
2022-08-16T04:22:13.468Z,24.60
2022-08-16T04:25:23.068Z,24.40
2022-08-16T04:28:29.663Z,24.50
2022-08-16T04:31:56.410Z,24.40
2022-08-16T04:35:08.382Z,24.20
2022-08-16T04:38:21.174Z,24.30
2022-08-16T04:41:32.606Z,24.50
2022-08-16T04:44:54.694Z,24.50
2022-08-16T04:48:01.561Z,24.50
2022-08-16T04:51:12.031Z,24.50
2022-08-16T04:54:19.468Z,24.40
2022-08-16T04:57:21.573Z,24.50
2022-08-16T05:00:30.932Z,24.80
2022-08-16T05:03:41.909Z,24.30
2022-08-16T05:07:03.513Z,24.50
2022-08-16T05:10:26.321Z,24.50
2022-08-16T05:13:40.811Z,24.30
2022-08-16T05:16:45.541Z,24.30
2022-08-16T05:19:57.978Z,24.60
2022-08-16T05:23:03.969Z,24.50
2022-08-16T05:26:20.340Z,24.40
2022-08-16T05:29:24.785Z,24.50
2022-08-16T05:32:45.885Z,24.50
2022-08-16T05:35:54.625Z,24.40
2022-08-16T05:39:05.618Z,24.50
2022-08-16T05:42:08.999Z,24.50
2022-08-16T05:45:12.608Z,24.50
2022-08-16T05:48:26.856Z,24.50
2022-08-16T05:51:38.754Z,24.50
2022-08-16T05:54:46.545Z,24.30
2022-08-16T05:57:52.382Z,24.30
2022-08-16T06:00:55.279Z,24.30
2022-08-16T06:03:59.769Z,24.80
2022-08-16T06:07:09.041Z,24.30
2022-08-16T06:10:34.545Z,24.80
2022-08-16T06:13:42.274Z,24.50
2022-08-16T06:16:50.963Z,24.80
2022-08-16T06:19:54.122Z,24.40
2022-08-16T06:23:03.936Z,24.30
2022-08-16T06:26:24.735Z,24.40
2022-08-16T06:29:38.074Z,24.30
2022-08-16T06:32:42.881Z,24.40
2022-08-16T06:35:46.175Z,24.30
2022-08-16T06:38:55.659Z,24.30
2022-08-16T06:42:06.625Z,24.40
2022-08-16T06:45:24.171Z,24.50
2022-08-16T06:48:42.689Z,24.30
2022-08-16T06:51:45.736Z,24.30
2022-08-16T06:54:49.971Z,24.50
2022-08-16T06:57:52.951Z,24.40
2022-08-16T07:00:58.092Z,24.40
2022-08-16T07:04:02.580Z,24.30
2022-08-16T07:07:12.381Z,24.30
2022-08-16T07:10:18.410Z,24.60
2022-08-16T07:13:43.953Z,24.50
2022-08-16T07:16:41.390Z,24.20
2022-08-16T07:20:03.291Z,24.50
2022-08-16T07:23:16.039Z,24.50
2022-08-16T07:26:25.825Z,24.20
2022-08-16T07:29:31.581Z,24.50
2022-08-16T07:32:35.001Z,24.70
2022-08-16T07:35:44.513Z,24.60
2022-08-16T07:38:51.702Z,24.70
2022-08-16T07:41:55.151Z,24.70
2022-08-16T07:44:57.201Z,24.80
2022-08-16T07:47:59.096Z,24.90
2022-08-16T07:51:15.407Z,24.90
2022-08-16T07:54:20.659Z,24.70
2022-08-16T07:57:26.796Z,24.70
2022-08-16T08:00:29.256Z,24.90
2022-08-16T08:03:38.790Z,25.00
2022-08-16T08:06:44.636Z,24.90
2022-08-16T08:09:50.144Z,24.60
2022-08-16T08:12:55.036Z,25.00
2022-08-16T08:15:56.954Z,25.00
2022-08-16T08:19:01.075Z,24.80
2022-08-16T08:22:05.893Z,24.80
2022-08-16T08:25:17.893Z,24.90
2022-08-16T08:28:21.872Z,25.00
2022-08-16T08:31:26.683Z,24.70
2022-08-16T08:34:30.002Z,25.00
2022-08-16T08:37:54.354Z,24.90
2022-08-16T08:40:53.301Z,24.90
2022-08-16T08:43:56.275Z,24.90
2022-08-16T08:46:59.638Z,24.80
2022-08-16T08:50:03.260Z,24.90
2022-08-16T08:53:07.255Z,24.90
2022-08-16T08:56:22.501Z,24.90
2022-08-16T08:59:27.949Z,24.80
2022-08-16T09:02:30.889Z,24.90
2022-08-16T09:05:36.042Z,24.90
2022-08-16T09:08:47.525Z,24.90
2022-08-16T09:12:04.220Z,24.60
2022-08-16T09:15:15.134Z,24.90
2022-08-16T09:18:27.096Z,24.90
2022-08-16T09:21:38.097Z,24.90
2022-08-16T09:24:52.079Z,25.00
2022-08-16T09:27:57.843Z,24.90
2022-08-16T09:31:06.607Z,25.00
2022-08-16T09:34:17.170Z,24.90
2022-08-16T09:37:20.616Z,24.80
2022-08-16T09:40:42.419Z,24.80
2022-08-16T09:44:00.174Z,25.00
2022-08-16T09:47:10.352Z,24.90
2022-08-16T09:50:12.305Z,24.90
2022-08-16T09:53:16.620Z,25.00
2022-08-16T09:56:26.512Z,25.00
2022-08-16T09:59:30.665Z,25.00
2022-08-16T10:02:33.165Z,25.00
2022-08-16T10:05:36.493Z,25.00
2022-08-16T10:09:05.627Z,24.70
2022-08-16T10:12:19.336Z,25.00
2022-08-16T10:15:21.302Z,24.80
2022-08-16T10:18:56.572Z,24.90
2022-08-16T10:21:45.673Z,24.80
2022-08-16T10:25:00.074Z,24.80
2022-08-16T10:28:27.557Z,24.90
2022-08-16T10:31:45.706Z,24.70
2022-08-16T10:34:45.597Z,24.90
2022-08-16T10:37:52.996Z,24.80
2022-08-16T10:40:54.419Z,24.60
2022-08-16T10:43:55.789Z,24.60
2022-08-16T10:46:57.299Z,24.90
2022-08-16T10:49:59.635Z,24.80
2022-08-16T10:53:06.011Z,24.80
2022-08-16T10:56:52.375Z,24.60
2022-08-16T10:59:39.196Z,24.60
2022-08-16T11:02:58.614Z,24.80
2022-08-16T11:06:06.105Z,24.70
2022-08-16T11:09:25.786Z,24.60
2022-08-16T11:12:32.427Z,24.90
2022-08-16T11:15:34.384Z,24.90
2022-08-16T11:18:48.438Z,25.00
2022-08-16T11:22:38.658Z,24.70
2022-08-16T11:32:06.245Z,24.50
2022-08-16T11:35:14.830Z,24.70
2022-08-16T11:38:46.725Z,24.90
2022-08-16T11:41:43.682Z,24.90
2022-08-16T11:44:56.091Z,25.00
2022-08-16T11:47:59.439Z,25.00
2022-08-16T11:51:01.294Z,25.00
2022-08-16T11:54:05.051Z,25.00
2022-08-16T11:57:10.942Z,25.20
2022-08-16T12:00:43.525Z,25.00
2022-08-16T12:03:36.111Z,25.10
2022-08-16T12:06:37.511Z,25.10
2022-08-16T12:09:43.321Z,25.10
2022-08-16T12:12:46.742Z,25.00
2022-08-16T12:15:48.359Z,25.10
2022-08-16T12:18:51.690Z,25.10
2022-08-16T12:21:58.932Z,25.20
2022-08-16T12:25:01.511Z,25.20
2022-08-16T12:28:04.019Z,25.10
2022-08-16T12:31:05.498Z,25.30
2022-08-16T12:34:07.069Z,25.30
2022-08-16T12:37:11.642Z,25.40
2022-08-16T12:40:23.770Z,25.40
2022-08-16T12:43:31.156Z,25.30
2022-08-16T12:46:33.590Z,25.30
2022-08-16T12:49:41.778Z,25.40
2022-08-16T12:52:52.099Z,25.30
2022-08-16T12:55:55.116Z,25.30
2022-08-16T12:58:56.639Z,25.30
2022-08-16T13:02:00.186Z,25.40
2022-08-16T13:05:01.846Z,25.30
2022-08-16T13:08:04.358Z,25.70
2022-08-16T13:11:07.734Z,25.40
2022-08-16T13:14:09.335Z,25.60
2022-08-16T13:17:31.050Z,25.30
2022-08-16T13:20:32.344Z,25.50
2022-08-16T13:23:36.051Z,25.50
2022-08-16T13:26:45.046Z,25.50
2022-08-16T13:29:46.373Z,25.50
2022-08-16T13:32:58.793Z,25.60
2022-08-16T13:36:03.328Z,25.60
2022-08-16T13:39:05.224Z,25.70
2022-08-16T13:42:09.742Z,25.60
2022-08-16T13:45:15.585Z,25.60
2022-08-16T13:48:21.789Z,25.50
2022-08-16T13:51:29.162Z,25.60
2022-08-16T13:54:31.949Z,25.40
2022-08-16T13:58:34.216Z,25.60
2022-08-16T14:00:55.671Z,25.60
2022-08-16T14:04:00.496Z,25.60
2022-08-16T14:07:02.533Z,25.60
2022-08-16T14:10:04.820Z,25.70
2022-08-16T14:13:07.959Z,25.50
2022-08-16T14:16:24.253Z,25.70
2022-08-16T14:19:35.379Z,25.70
2022-08-16T14:22:42.321Z,25.70
2022-08-16T14:25:54.139Z,25.70
2022-08-16T14:28:59.969Z,25.70
2022-08-16T14:32:05.268Z,25.30
2022-08-16T14:35:09.029Z,25.70
2022-08-16T14:38:18.241Z,25.80
2022-08-16T14:41:20.087Z,25.70
2022-08-16T14:44:23.537Z,25.70
2022-08-16T14:47:24.866Z,25.80
2022-08-16T14:50:33.216Z,25.80
2022-08-16T14:53:35.024Z,25.80
2022-08-16T14:56:38.929Z,25.80
2022-08-16T14:59:46.130Z,25.80
2022-08-16T15:02:50.146Z,25.80
2022-08-16T15:05:55.495Z,25.90
2022-08-16T15:08:57.054Z,25.90
2022-08-16T15:12:04.423Z,25.80
2022-08-16T15:15:13.006Z,25.90
2022-08-16T15:18:23.437Z,26.00
2022-08-16T15:21:29.563Z,26.10
2022-08-16T15:24:31.027Z,26.00
2022-08-16T15:27:41.382Z,26.30
2022-08-16T15:30:58.089Z,26.10
2022-08-16T15:34:02.202Z,26.10
2022-08-16T15:37:04.853Z,26.00
2022-08-16T15:40:08.090Z,26.00
2022-08-16T15:43:38.944Z,26.00
2022-08-16T15:46:56.661Z,26.00
2022-08-16T15:50:00.441Z,26.00
2022-08-16T15:53:06.509Z,26.10
2022-08-16T15:56:13.794Z,26.10
2022-08-16T15:59:15.319Z,25.80
2022-08-16T16:02:21.699Z,25.90
2022-08-16T16:05:29.628Z,26.10
2022-08-16T16:08:31.711Z,26.10
2022-08-16T16:11:33.127Z,26.10
2022-08-16T16:14:34.538Z,26.00
2022-08-16T16:17:36.627Z,26.00
2022-08-16T16:20:41.527Z,26.00
2022-08-16T16:23:55.101Z,26.00
2022-08-16T16:27:00.663Z,26.00
2022-08-16T16:30:02.560Z,25.90
2022-08-16T16:33:20.708Z,26.00
2022-08-16T16:36:28.593Z,26.00
2022-08-16T16:39:32.789Z,25.90
2022-08-16T16:42:35.324Z,26.10
2022-08-16T16:45:42.614Z,26.00
2022-08-16T16:48:44.764Z,26.00
2022-08-16T16:51:49.948Z,25.80
2022-08-16T16:54:51.774Z,26.00
2022-08-16T16:58:17.980Z,25.70
2022-08-16T17:01:41.348Z,25.90
2022-08-16T17:04:55.634Z,25.80
2022-08-16T17:07:57.692Z,25.70
2022-08-16T17:10:59.758Z,25.80
2022-08-16T17:14:01.693Z,25.80
2022-08-16T17:17:05.624Z,26.00
2022-08-16T17:23:58.921Z,25.70
2022-08-16T17:26:56.032Z,25.80
2022-08-16T17:29:58.850Z,25.50
2022-08-16T17:33:02.850Z,25.60
2022-08-16T17:36:08.764Z,25.50
2022-08-16T17:39:11.319Z,25.70
2022-08-16T17:39:26.602Z,25.70
2022-08-16T17:42:15.651Z,25.40
2022-08-16T17:45:16.943Z,25.10
2022-08-16T17:48:18.259Z,25.60
2022-08-16T17:51:20.517Z,25.60
2022-08-16T17:54:30.449Z,25.50
2022-08-16T17:57:33.178Z,25.50
2022-08-16T18:00:34.483Z,25.30
2022-08-16T18:04:03.074Z,25.30
2022-08-16T18:06:59.786Z,25.30
2022-08-16T18:10:01.347Z,25.30
2022-08-16T18:13:03.294Z,25.10
2022-08-16T18:16:05.500Z,25.30
2022-08-16T18:19:06.825Z,25.30
2022-08-16T18:22:20.946Z,25.30
2022-08-16T18:25:22.273Z,25.20
2022-08-16T18:28:24.349Z,25.50
2022-08-16T18:31:25.906Z,25.10
2022-08-16T18:34:27.364Z,25.30
2022-08-16T18:37:29.235Z,25.20
2022-08-16T18:40:30.774Z,25.10
2022-08-16T18:44:24.039Z,25.10
2022-08-16T18:46:53.603Z,25.10
2022-08-16T18:49:54.907Z,25.20
2022-08-16T18:52:57.713Z,25.30
2022-08-16T18:55:59.994Z,25.20
2022-08-16T18:59:01.354Z,25.20
2022-08-16T19:02:04.802Z,25.10
2022-08-16T19:05:09.242Z,25.00
2022-08-16T19:08:13.091Z,25.10
2022-08-16T19:11:19.177Z,25.10
2022-08-16T19:14:25.991Z,24.90
2022-08-16T19:17:28.031Z,25.30
2022-08-16T19:20:29.750Z,25.10
2022-08-16T19:23:37.274Z,25.10
2022-08-16T19:26:38.719Z,25.00
2022-08-16T19:29:40.061Z,24.90
2022-08-16T19:32:41.590Z,24.80
2022-08-16T19:35:43.040Z,25.10
2022-08-16T19:38:44.948Z,25.00
2022-08-16T19:41:53.040Z,25.30
2022-08-16T19:44:56.778Z,24.70
2022-08-16T19:48:02.769Z,25.00
2022-08-16T19:51:04.109Z,25.40
2022-08-16T19:54:06.243Z,25.00
2022-08-16T19:57:08.098Z,25.00
2022-08-16T20:00:13.516Z,25.00
2022-08-16T20:03:16.334Z,24.90
2022-08-16T20:06:32.101Z,25.00
2022-08-16T20:09:39.866Z,24.80
2022-08-16T20:12:41.605Z,24.80
2022-08-16T20:15:43.966Z,24.80
2022-08-16T20:18:45.395Z,24.90
2022-08-16T20:21:46.789Z,24.80
2022-08-16T20:24:52.104Z,24.80
2022-08-16T20:27:54.809Z,24.70
2022-08-16T20:30:56.234Z,25.10
2022-08-16T20:33:57.537Z,24.80
2022-08-16T20:36:59.198Z,24.90
2022-08-16T20:40:28.022Z,24.50
2022-08-16T20:43:22.440Z,24.60
2022-08-16T20:46:23.814Z,24.80
2022-08-16T20:49:25.096Z,24.70
2022-08-16T20:52:26.562Z,24.70
2022-08-16T20:55:29.343Z,24.70
2022-08-16T20:58:30.783Z,24.50
2022-08-16T21:01:45.688Z,24.70
2022-08-16T21:04:48.581Z,24.60
2022-08-16T21:07:51.605Z,24.70
2022-08-16T21:10:53.511Z,24.80
2022-08-16T21:13:55.359Z,24.60
2022-08-16T21:17:02.800Z,24.60
2022-08-16T21:20:05.029Z,24.50
2022-08-16T21:23:10.310Z,24.60
2022-08-16T21:26:12.440Z,24.60
2022-08-16T21:29:16.262Z,24.40
2022-08-16T21:32:19.848Z,24.60
2022-08-16T21:35:37.132Z,24.70
2022-08-16T21:38:38.851Z,24.60
2022-08-16T21:41:40.730Z,24.40
2022-08-16T21:44:42.198Z,24.70
2022-08-16T21:47:43.526Z,24.60
2022-08-16T21:50:44.878Z,24.50
2022-08-16T21:53:46.379Z,24.70
2022-08-16T21:56:48.571Z,24.50
2022-08-16T21:59:50.706Z,24.40
2022-08-16T22:02:53.713Z,24.60
2022-08-16T22:06:11.862Z,24.50
2022-08-16T22:09:15.105Z,24.80
2022-08-16T22:12:21.532Z,24.40
2022-08-16T22:15:25.997Z,24.70
2022-08-16T22:18:27.350Z,24.80
2022-08-16T22:21:29.214Z,24.40
2022-08-16T22:24:30.514Z,24.40
2022-08-16T22:27:35.752Z,24.50
2022-08-16T22:30:37.841Z,24.60
2022-08-16T22:33:39.812Z,24.60
2022-08-16T22:36:41.661Z,24.30
2022-08-16T22:39:43.214Z,24.30
2022-08-16T22:42:45.767Z,24.60
2022-08-16T22:45:47.101Z,24.70
2022-08-16T22:48:49.423Z,24.40
2022-08-16T22:51:51.512Z,24.70
2022-08-16T22:54:52.790Z,24.60
2022-08-16T22:57:55.520Z,24.60
2022-08-16T23:00:56.820Z,24.80
2022-08-16T23:03:58.410Z,24.60
2022-08-16T23:06:59.817Z,24.60
2022-08-16T23:10:01.348Z,24.50
2022-08-16T23:13:04.171Z,24.60
2022-08-16T23:16:10.588Z,24.60
2022-08-16T23:19:14.088Z,24.50
2022-08-16T23:22:15.678Z,24.70
2022-08-16T23:25:20.060Z,24.70
2022-08-16T23:28:24.788Z,24.70
2022-08-16T23:31:26.080Z,24.40
2022-08-16T23:34:27.833Z,24.60
2022-08-16T23:37:29.145Z,24.60
2022-08-16T23:40:34.065Z,24.70
2022-08-16T23:43:41.197Z,24.50
2022-08-16T23:46:42.476Z,24.60
2022-08-16T23:49:57.856Z,25.20
2022-08-16T23:53:04.368Z,24.70
2022-08-16T23:56:07.045Z,24.40
2022-08-16T23:59:09.191Z,24.60
